sensor_id;sensor_type;location;lat;lon;timestamp;P1;durP1;ratioP1;P2;durP2;ratioP2
10651;SDS011;5374;42.742;23.266;2023-07-02T00:01:18;7.77;;;6.00;;
10651;SDS011;5374;42.742;23.266;2023-07-02T00:04:05;10.17;;;6.33;;
10651;SDS011;5374;42.742;23.266;2023-07-02T00:06:55;9.13;;;6.10;;
10651;SDS011;5374;42.742;23.266;2023-07-02T00:09:43;8.43;;;5.37;;
10651;SDS011;5374;42.742;23.266;2023-07-02T00:12:31;8.17;;;5.83;;
10651;SDS011;5374;42.742;23.266;2023-07-02T00:15:18;9.93;;;6.30;;
10651;SDS011;5374;42.742;23.266;2023-07-02T00:18:05;8.13;;;6.00;;
10651;SDS011;5374;42.742;23.266;2023-07-02T00:20:53;9.67;;;5.77;;
10651;SDS011;5374;42.742;23.266;2023-07-02T00:23:40;8.97;;;6.07;;
10651;SDS011;5374;42.742;23.266;2023-07-02T00:26:27;10.00;;;6.13;;
10651;SDS011;5374;42.742;23.266;2023-07-02T00:29:16;7.37;;;5.90;;
10651;SDS011;5374;42.742;23.266;2023-07-02T00:32:03;8.03;;;5.70;;
10651;SDS011;5374;42.742;23.266;2023-07-02T00:34:51;10.13;;;6.10;;
10651;SDS011;5374;42.742;23.266;2023-07-02T00:37:39;7.87;;;6.07;;
10651;SDS011;5374;42.742;23.266;2023-07-02T00:40:26;8.60;;;6.23;;
10651;SDS011;5374;42.742;23.266;2023-07-02T00:43:13;8.53;;;6.40;;
10651;SDS011;5374;42.742;23.266;2023-07-02T00:46:04;7.93;;;6.10;;
10651;SDS011;5374;42.742;23.266;2023-07-02T00:48:51;9.30;;;6.50;;
10651;SDS011;5374;42.742;23.266;2023-07-02T00:51:39;7.23;;;5.80;;
10651;SDS011;5374;42.742;23.266;2023-07-02T00:54:27;7.77;;;5.90;;
10651;SDS011;5374;42.742;23.266;2023-07-02T00:57:14;7.10;;;6.20;;
10651;SDS011;5374;42.742;23.266;2023-07-02T01:00:02;9.63;;;6.60;;
10651;SDS011;5374;42.742;23.266;2023-07-02T01:02:56;8.73;;;6.17;;
10651;SDS011;5374;42.742;23.266;2023-07-02T01:05:44;8.77;;;6.43;;
10651;SDS011;5374;42.742;23.266;2023-07-02T01:08:31;8.00;;;6.30;;
10651;SDS011;5374;42.742;23.266;2023-07-02T01:11:19;8.37;;;6.57;;
10651;SDS011;5374;42.742;23.266;2023-07-02T01:14:08;7.70;;;6.47;;
10651;SDS011;5374;42.742;23.266;2023-07-02T01:16:59;10.03;;;6.73;;
10651;SDS011;5374;42.742;23.266;2023-07-02T01:19:50;7.40;;;6.20;;
10651;SDS011;5374;42.742;23.266;2023-07-02T01:22:40;11.03;;;6.67;;
10651;SDS011;5374;42.742;23.266;2023-07-02T01:25:27;7.73;;;5.97;;
10651;SDS011;5374;42.742;23.266;2023-07-02T01:28:14;9.93;;;7.20;;
10651;SDS011;5374;42.742;23.266;2023-07-02T01:31:02;10.63;;;8.10;;
10651;SDS011;5374;42.742;23.266;2023-07-02T01:33:50;8.83;;;6.73;;
10651;SDS011;5374;42.742;23.266;2023-07-02T01:36:39;13.17;;;7.87;;
10651;SDS011;5374;42.742;23.266;2023-07-02T01:39:27;9.20;;;6.97;;
10651;SDS011;5374;42.742;23.266;2023-07-02T01:42:15;13.77;;;6.93;;
10651;SDS011;5374;42.742;23.266;2023-07-02T01:45:03;9.33;;;6.57;;
10651;SDS011;5374;42.742;23.266;2023-07-02T01:47:51;10.10;;;6.83;;
10651;SDS011;5374;42.742;23.266;2023-07-02T01:50:38;12.63;;;7.27;;
10651;SDS011;5374;42.742;23.266;2023-07-02T01:53:29;9.03;;;6.67;;
10651;SDS011;5374;42.742;23.266;2023-07-02T01:56:17;12.53;;;7.80;;
10651;SDS011;5374;42.742;23.266;2023-07-02T01:59:04;13.23;;;6.93;;
10651;SDS011;5374;42.742;23.266;2023-07-02T02:01:51;12.03;;;7.70;;
10651;SDS011;5374;42.742;23.266;2023-07-02T02:04:40;14.17;;;7.67;;
10651;SDS011;5374;42.742;23.266;2023-07-02T02:07:27;11.07;;;7.60;;
10651;SDS011;5374;42.742;23.266;2023-07-02T02:10:16;12.73;;;7.37;;
10651;SDS011;5374;42.742;23.266;2023-07-02T02:13:03;11.07;;;7.07;;
10651;SDS011;5374;42.742;23.266;2023-07-02T02:15:50;10.47;;;7.63;;
10651;SDS011;5374;42.742;23.266;2023-07-02T02:18:37;11.57;;;7.60;;
10651;SDS011;5374;42.742;23.266;2023-07-02T02:21:24;10.97;;;7.27;;
10651;SDS011;5374;42.742;23.266;2023-07-02T02:24:12;11.77;;;7.30;;
10651;SDS011;5374;42.742;23.266;2023-07-02T02:27:02;13.07;;;7.67;;
10651;SDS011;5374;42.742;23.266;2023-07-02T02:29:49;10.60;;;6.63;;
10651;SDS011;5374;42.742;23.266;2023-07-02T02:32:36;8.30;;;6.50;;
10651;SDS011;5374;42.742;23.266;2023-07-02T02:35:24;13.30;;;6.90;;
10651;SDS011;5374;42.742;23.266;2023-07-02T02:38:11;14.27;;;7.40;;
10651;SDS011;5374;42.742;23.266;2023-07-02T02:41:01;10.53;;;6.83;;
10651;SDS011;5374;42.742;23.266;2023-07-02T02:43:49;10.70;;;6.90;;
10651;SDS011;5374;42.742;23.266;2023-07-02T02:46:36;8.70;;;6.63;;
10651;SDS011;5374;42.742;23.266;2023-07-02T02:49:24;10.63;;;7.00;;
10651;SDS011;5374;42.742;23.266;2023-07-02T02:52:11;9.90;;;6.20;;
10651;SDS011;5374;42.742;23.266;2023-07-02T02:54:59;9.97;;;7.70;;
10651;SDS011;5374;42.742;23.266;2023-07-02T02:57:47;12.93;;;7.57;;
10651;SDS011;5374;42.742;23.266;2023-07-02T03:00:35;13.23;;;7.30;;
10651;SDS011;5374;42.742;23.266;2023-07-02T03:03:23;9.17;;;6.73;;
10651;SDS011;5374;42.742;23.266;2023-07-02T03:06:11;11.83;;;7.50;;
10651;SDS011;5374;42.742;23.266;2023-07-02T03:09:00;9.50;;;7.63;;
10651;SDS011;5374;42.742;23.266;2023-07-02T03:11:47;11.60;;;7.63;;
10651;SDS011;5374;42.742;23.266;2023-07-02T03:14:35;10.77;;;7.70;;
10651;SDS011;5374;42.742;23.266;2023-07-02T03:17:24;13.17;;;8.10;;
10651;SDS011;5374;42.742;23.266;2023-07-02T03:20:12;11.23;;;7.80;;
10651;SDS011;5374;42.742;23.266;2023-07-02T03:22:59;12.57;;;8.93;;
10651;SDS011;5374;42.742;23.266;2023-07-02T03:25:46;11.23;;;7.83;;
10651;SDS011;5374;42.742;23.266;2023-07-02T03:28:33;12.13;;;7.37;;
10651;SDS011;5374;42.742;23.266;2023-07-02T03:31:20;9.83;;;7.13;;
10651;SDS011;5374;42.742;23.266;2023-07-02T03:34:09;10.23;;;7.70;;
10651;SDS011;5374;42.742;23.266;2023-07-02T03:36:57;10.30;;;8.47;;
10651;SDS011;5374;42.742;23.266;2023-07-02T03:39:44;12.20;;;8.33;;
10651;SDS011;5374;42.742;23.266;2023-07-02T03:42:32;12.27;;;7.77;;
10651;SDS011;5374;42.742;23.266;2023-07-02T03:45:20;13.10;;;8.07;;
10651;SDS011;5374;42.742;23.266;2023-07-02T03:48:07;10.60;;;8.10;;
10651;SDS011;5374;42.742;23.266;2023-07-02T03:50:55;10.43;;;7.93;;
10651;SDS011;5374;42.742;23.266;2023-07-02T03:53:43;13.07;;;8.33;;
10651;SDS011;5374;42.742;23.266;2023-07-02T03:56:30;12.20;;;8.27;;
10651;SDS011;5374;42.742;23.266;2023-07-02T03:59:17;9.63;;;8.03;;
10651;SDS011;5374;42.742;23.266;2023-07-02T04:02:04;10.30;;;8.23;;
10651;SDS011;5374;42.742;23.266;2023-07-02T04:04:52;10.87;;;7.70;;
10651;SDS011;5374;42.742;23.266;2023-07-02T04:07:40;9.50;;;7.60;;
10651;SDS011;5374;42.742;23.266;2023-07-02T04:10:27;11.43;;;8.30;;
10651;SDS011;5374;42.742;23.266;2023-07-02T04:13:14;11.67;;;8.23;;
10651;SDS011;5374;42.742;23.266;2023-07-02T04:16:01;12.03;;;8.27;;
10651;SDS011;5374;42.742;23.266;2023-07-02T04:18:49;11.50;;;8.00;;
10651;SDS011;5374;42.742;23.266;2023-07-02T04:21:36;12.00;;;7.77;;
10651;SDS011;5374;42.742;23.266;2023-07-02T04:24:24;12.50;;;8.30;;
10651;SDS011;5374;42.742;23.266;2023-07-02T04:27:12;10.07;;;8.00;;
10651;SDS011;5374;42.742;23.266;2023-07-02T04:29:59;11.07;;;7.43;;
10651;SDS011;5374;42.742;23.266;2023-07-02T04:32:46;9.77;;;7.40;;
10651;SDS011;5374;42.742;23.266;2023-07-02T04:35:34;14.83;;;7.80;;
10651;SDS011;5374;42.742;23.266;2023-07-02T04:38:21;8.47;;;7.53;;
10651;SDS011;5374;42.742;23.266;2023-07-02T04:41:09;10.93;;;7.80;;
10651;SDS011;5374;42.742;23.266;2023-07-02T04:43:56;13.40;;;7.80;;
10651;SDS011;5374;42.742;23.266;2023-07-02T04:46:43;12.20;;;7.93;;
10651;SDS011;5374;42.742;23.266;2023-07-02T04:49:31;15.20;;;8.20;;
10651;SDS011;5374;42.742;23.266;2023-07-02T04:52:18;13.20;;;8.57;;
10651;SDS011;5374;42.742;23.266;2023-07-02T04:55:05;15.03;;;7.83;;
10651;SDS011;5374;42.742;23.266;2023-07-02T04:57:54;8.27;;;7.33;;
10651;SDS011;5374;42.742;23.266;2023-07-02T05:00:41;12.90;;;7.90;;
10651;SDS011;5374;42.742;23.266;2023-07-02T05:03:28;13.17;;;8.90;;
10651;SDS011;5374;42.742;23.266;2023-07-02T05:06:15;9.07;;;7.73;;
10651;SDS011;5374;42.742;23.266;2023-07-02T05:09:02;11.10;;;8.13;;
10651;SDS011;5374;42.742;23.266;2023-07-02T05:11:50;11.80;;;8.77;;
10651;SDS011;5374;42.742;23.266;2023-07-02T05:14:38;12.83;;;8.23;;
10651;SDS011;5374;42.742;23.266;2023-07-02T05:17:25;14.10;;;9.27;;
10651;SDS011;5374;42.742;23.266;2023-07-02T05:20:12;18.20;;;8.93;;
10651;SDS011;5374;42.742;23.266;2023-07-02T05:23:00;16.13;;;9.17;;
10651;SDS011;5374;42.742;23.266;2023-07-02T05:25:47;15.10;;;9.13;;
10651;SDS011;5374;42.742;23.266;2023-07-02T05:28:34;17.47;;;9.10;;
10651;SDS011;5374;42.742;23.266;2023-07-02T05:31:23;11.40;;;8.63;;
10651;SDS011;5374;42.742;23.266;2023-07-02T05:34:10;14.63;;;8.93;;
10651;SDS011;5374;42.742;23.266;2023-07-02T05:36:57;13.17;;;8.60;;
10651;SDS011;5374;42.742;23.266;2023-07-02T05:39:44;11.53;;;8.67;;
10651;SDS011;5374;42.742;23.266;2023-07-02T05:42:31;11.83;;;9.10;;
10651;SDS011;5374;42.742;23.266;2023-07-02T05:45:18;13.40;;;9.00;;
10651;SDS011;5374;42.742;23.266;2023-07-02T05:48:07;13.57;;;9.13;;
10651;SDS011;5374;42.742;23.266;2023-07-02T05:50:54;11.50;;;8.80;;
10651;SDS011;5374;42.742;23.266;2023-07-02T05:53:41;12.57;;;9.17;;
10651;SDS011;5374;42.742;23.266;2023-07-02T05:56:29;14.00;;;8.43;;
10651;SDS011;5374;42.742;23.266;2023-07-02T05:59:16;14.83;;;10.33;;
10651;SDS011;5374;42.742;23.266;2023-07-02T06:02:04;18.07;;;10.43;;
10651;SDS011;5374;42.742;23.266;2023-07-02T06:04:53;17.27;;;9.67;;
10651;SDS011;5374;42.742;23.266;2023-07-02T06:07:40;15.73;;;10.73;;
10651;SDS011;5374;42.742;23.266;2023-07-02T06:10:27;11.57;;;8.43;;
10651;SDS011;5374;42.742;23.266;2023-07-02T06:13:14;14.33;;;8.90;;
10651;SDS011;5374;42.742;23.266;2023-07-02T06:16:02;11.53;;;8.60;;
10651;SDS011;5374;42.742;23.266;2023-07-02T06:18:49;14.53;;;8.57;;
10651;SDS011;5374;42.742;23.266;2023-07-02T06:21:38;11.53;;;8.20;;
10651;SDS011;5374;42.742;23.266;2023-07-02T06:24:25;11.13;;;8.90;;
10651;SDS011;5374;42.742;23.266;2023-07-02T06:27:12;13.90;;;9.73;;
10651;SDS011;5374;42.742;23.266;2023-07-02T06:29:59;15.13;;;9.77;;
10651;SDS011;5374;42.742;23.266;2023-07-02T06:32:47;14.23;;;8.90;;
10651;SDS011;5374;42.742;23.266;2023-07-02T06:35:34;13.83;;;9.33;;
10651;SDS011;5374;42.742;23.266;2023-07-02T06:38:22;12.60;;;9.60;;
10651;SDS011;5374;42.742;23.266;2023-07-02T06:41:10;11.77;;;9.43;;
10651;SDS011;5374;42.742;23.266;2023-07-02T06:43:57;11.93;;;9.67;;
10651;SDS011;5374;42.742;23.266;2023-07-02T06:46:45;11.87;;;9.33;;
10651;SDS011;5374;42.742;23.266;2023-07-02T06:49:32;12.57;;;9.60;;
10651;SDS011;5374;42.742;23.266;2023-07-02T06:52:20;12.20;;;9.27;;
10651;SDS011;5374;42.742;23.266;2023-07-02T06:55:09;12.10;;;9.13;;
10651;SDS011;5374;42.742;23.266;2023-07-02T06:57:56;12.37;;;8.87;;
10651;SDS011;5374;42.742;23.266;2023-07-02T07:00:43;13.07;;;9.10;;
10651;SDS011;5374;42.742;23.266;2023-07-02T07:03:30;11.87;;;8.50;;
10651;SDS011;5374;42.742;23.266;2023-07-02T07:06:18;11.47;;;8.57;;
10651;SDS011;5374;42.742;23.266;2023-07-02T07:09:06;10.13;;;8.53;;
10651;SDS011;5374;42.742;23.266;2023-07-02T07:11:54;12.47;;;8.50;;
10651;SDS011;5374;42.742;23.266;2023-07-02T07:14:42;11.80;;;9.03;;
10651;SDS011;5374;42.742;23.266;2023-07-02T07:17:29;13.83;;;9.93;;
10651;SDS011;5374;42.742;23.266;2023-07-02T07:20:16;11.83;;;9.50;;
10651;SDS011;5374;42.742;23.266;2023-07-02T07:23:03;16.70;;;9.50;;
10651;SDS011;5374;42.742;23.266;2023-07-02T07:25:50;12.37;;;9.30;;
10651;SDS011;5374;42.742;23.266;2023-07-02T07:28:39;12.83;;;9.33;;
10651;SDS011;5374;42.742;23.266;2023-07-02T07:31:27;12.27;;;9.00;;
10651;SDS011;5374;42.742;23.266;2023-07-02T07:34:14;12.37;;;8.97;;
10651;SDS011;5374;42.742;23.266;2023-07-02T07:37:02;13.17;;;9.17;;
10651;SDS011;5374;42.742;23.266;2023-07-02T07:39:50;14.20;;;8.57;;
10651;SDS011;5374;42.742;23.266;2023-07-02T07:42:37;13.40;;;8.67;;
10651;SDS011;5374;42.742;23.266;2023-07-02T07:45:26;12.23;;;8.50;;
10651;SDS011;5374;42.742;23.266;2023-07-02T07:48:14;13.73;;;8.60;;
10651;SDS011;5374;42.742;23.266;2023-07-02T07:51:02;14.47;;;8.10;;
10651;SDS011;5374;42.742;23.266;2023-07-02T07:53:49;19.83;;;8.50;;
10651;SDS011;5374;42.742;23.266;2023-07-02T07:56:36;14.93;;;8.97;;
10651;SDS011;5374;42.742;23.266;2023-07-02T07:59:23;12.00;;;8.83;;
10651;SDS011;5374;42.742;23.266;2023-07-02T08:02:12;10.93;;;8.23;;
10651;SDS011;5374;42.742;23.266;2023-07-02T08:04:59;13.80;;;8.43;;
10651;SDS011;5374;42.742;23.266;2023-07-02T08:07:46;9.77;;;8.83;;
10651;SDS011;5374;42.742;23.266;2023-07-02T08:10:34;10.03;;;8.07;;
10651;SDS011;5374;42.742;23.266;2023-07-02T08:13:21;14.40;;;9.27;;
10651;SDS011;5374;42.742;23.266;2023-07-02T08:16:08;13.07;;;8.70;;
10651;SDS011;5374;42.742;23.266;2023-07-02T08:18:57;15.27;;;9.83;;
10651;SDS011;5374;42.742;23.266;2023-07-02T08:21:44;11.87;;;9.20;;
10651;SDS011;5374;42.742;23.266;2023-07-02T08:24:31;12.13;;;9.00;;
10651;SDS011;5374;42.742;23.266;2023-07-02T08:27:19;11.17;;;8.97;;
10651;SDS011;5374;42.742;23.266;2023-07-02T08:30:06;11.80;;;8.27;;
10651;SDS011;5374;42.742;23.266;2023-07-02T08:32:54;10.40;;;8.13;;
10651;SDS011;5374;42.742;23.266;2023-07-02T08:35:43;10.57;;;8.93;;
10651;SDS011;5374;42.742;23.266;2023-07-02T08:38:30;13.37;;;8.07;;
10651;SDS011;5374;42.742;23.266;2023-07-02T08:41:17;9.53;;;8.27;;
10651;SDS011;5374;42.742;23.266;2023-07-02T08:44:04;10.10;;;8.23;;
10651;SDS011;5374;42.742;23.266;2023-07-02T08:46:51;11.80;;;8.23;;
10651;SDS011;5374;42.742;23.266;2023-07-02T08:49:41;11.20;;;8.30;;
10651;SDS011;5374;42.742;23.266;2023-07-02T08:52:30;9.87;;;7.97;;
10651;SDS011;5374;42.742;23.266;2023-07-02T08:55:17;9.37;;;8.37;;
10651;SDS011;5374;42.742;23.266;2023-07-02T08:58:04;11.50;;;7.90;;
10651;SDS011;5374;42.742;23.266;2023-07-02T09:01:04;10.07;;;7.80;;
10651;SDS011;5374;42.742;23.266;2023-07-02T09:03:58;9.67;;;7.73;;
10651;SDS011;5374;42.742;23.266;2023-07-02T09:06:47;9.80;;;7.63;;
10651;SDS011;5374;42.742;23.266;2023-07-02T09:09:45;10.67;;;7.63;;
10651;SDS011;5374;42.742;23.266;2023-07-02T09:12:33;8.67;;;7.73;;
10651;SDS011;5374;42.742;23.266;2023-07-02T09:15:20;10.70;;;7.43;;
10651;SDS011;5374;42.742;23.266;2023-07-02T09:18:17;8.80;;;7.90;;
10651;SDS011;5374;42.742;23.266;2023-07-02T09:21:05;11.23;;;7.80;;
10651;SDS011;5374;42.742;23.266;2023-07-02T09:23:52;9.00;;;7.27;;
10651;SDS011;5374;42.742;23.266;2023-07-02T09:26:43;9.83;;;6.90;;
10651;SDS011;5374;42.742;23.266;2023-07-02T09:29:31;7.90;;;7.10;;
10651;SDS011;5374;42.742;23.266;2023-07-02T09:32:23;9.93;;;6.70;;
10651;SDS011;5374;42.742;23.266;2023-07-02T09:35:12;8.80;;;6.90;;
10651;SDS011;5374;42.742;23.266;2023-07-02T09:37:59;9.80;;;7.53;;
10651;SDS011;5374;42.742;23.266;2023-07-02T09:40:47;8.87;;;7.03;;
10651;SDS011;5374;42.742;23.266;2023-07-02T09:43:37;10.60;;;7.53;;
10651;SDS011;5374;42.742;23.266;2023-07-02T09:46:25;7.90;;;7.10;;
10651;SDS011;5374;42.742;23.266;2023-07-02T09:49:13;7.33;;;6.37;;
10651;SDS011;5374;42.742;23.266;2023-07-02T09:52:04;7.60;;;6.37;;
10651;SDS011;5374;42.742;23.266;2023-07-02T09:54:52;9.13;;;6.50;;
10651;SDS011;5374;42.742;23.266;2023-07-02T09:57:39;10.93;;;7.23;;
10651;SDS011;5374;42.742;23.266;2023-07-02T10:00:31;7.93;;;6.67;;
10651;SDS011;5374;42.742;23.266;2023-07-02T10:03:27;7.50;;;6.33;;
10651;SDS011;5374;42.742;23.266;2023-07-02T10:06:15;9.80;;;6.37;;
10651;SDS011;5374;42.742;23.266;2023-07-02T10:09:02;7.80;;;6.40;;
10651;SDS011;5374;42.742;23.266;2023-07-02T10:11:49;9.13;;;6.73;;
10651;SDS011;5374;42.742;23.266;2023-07-02T10:14:46;10.73;;;6.97;;
10651;SDS011;5374;42.742;23.266;2023-07-02T10:17:36;9.50;;;6.87;;
10651;SDS011;5374;42.742;23.266;2023-07-02T10:20:32;12.40;;;9.97;;
10651;SDS011;5374;42.742;23.266;2023-07-02T10:23:21;10.10;;;7.90;;
10651;SDS011;5374;42.742;23.266;2023-07-02T10:26:19;8.17;;;6.83;;
10651;SDS011;5374;42.742;23.266;2023-07-02T10:29:07;6.80;;;6.07;;
10651;SDS011;5374;42.742;23.266;2023-07-02T10:31:54;7.37;;;6.00;;
10651;SDS011;5374;42.742;23.266;2023-07-02T10:34:43;7.13;;;6.17;;
10651;SDS011;5374;42.742;23.266;2023-07-02T10:37:36;6.80;;;6.10;;
10651;SDS011;5374;42.742;23.266;2023-07-02T10:40:23;7.20;;;6.27;;
10651;SDS011;5374;42.742;23.266;2023-07-02T10:43:12;7.13;;;5.70;;
10651;SDS011;5374;42.742;23.266;2023-07-02T10:46:00;6.50;;;4.93;;
10651;SDS011;5374;42.742;23.266;2023-07-02T10:48:51;6.30;;;5.23;;
10651;SDS011;5374;42.742;23.266;2023-07-02T10:51:40;7.27;;;5.23;;
10651;SDS011;5374;42.742;23.266;2023-07-02T10:54:38;12.13;;;5.53;;
10651;SDS011;5374;42.742;23.266;2023-07-02T10:57:26;6.57;;;5.20;;
10651;SDS011;5374;42.742;23.266;2023-07-02T11:00:13;8.73;;;5.23;;
10651;SDS011;5374;42.742;23.266;2023-07-02T11:03:02;6.77;;;5.00;;
10651;SDS011;5374;42.742;23.266;2023-07-02T11:05:50;13.53;;;5.50;;
10651;SDS011;5374;42.742;23.266;2023-07-02T11:08:39;33.20;;;7.00;;
10651;SDS011;5374;42.742;23.266;2023-07-02T11:11:26;8.43;;;5.77;;
10651;SDS011;5374;42.742;23.266;2023-07-02T11:14:14;13.13;;;5.13;;
10651;SDS011;5374;42.742;23.266;2023-07-02T11:17:02;9.13;;;5.10;;
10651;SDS011;5374;42.742;23.266;2023-07-02T11:19:51;7.60;;;5.23;;
10651;SDS011;5374;42.742;23.266;2023-07-02T11:22:38;16.33;;;5.93;;
10651;SDS011;5374;42.742;23.266;2023-07-02T11:25:28;9.57;;;5.73;;
10651;SDS011;5374;42.742;23.266;2023-07-02T11:28:15;13.23;;;6.33;;
10651;SDS011;5374;42.742;23.266;2023-07-02T11:31:02;10.27;;;5.60;;
10651;SDS011;5374;42.742;23.266;2023-07-02T11:33:51;8.70;;;5.63;;
10651;SDS011;5374;42.742;23.266;2023-07-02T11:36:38;8.87;;;5.73;;
10651;SDS011;5374;42.742;23.266;2023-07-02T11:39:25;6.77;;;5.47;;
10651;SDS011;5374;42.742;23.266;2023-07-02T11:42:14;6.47;;;5.70;;
10651;SDS011;5374;42.742;23.266;2023-07-02T11:45:01;10.20;;;5.17;;
10651;SDS011;5374;42.742;23.266;2023-07-02T11:47:48;8.00;;;5.57;;
10651;SDS011;5374;42.742;23.266;2023-07-02T11:50:35;11.10;;;5.80;;
10651;SDS011;5374;42.742;23.266;2023-07-02T11:53:22;6.60;;;5.57;;
10651;SDS011;5374;42.742;23.266;2023-07-02T11:56:10;8.47;;;6.00;;
10651;SDS011;5374;42.742;23.266;2023-07-02T11:59:00;6.37;;;5.20;;
10651;SDS011;5374;42.742;23.266;2023-07-02T12:01:47;5.23;;;4.73;;
10651;SDS011;5374;42.742;23.266;2023-07-02T12:04:34;5.20;;;4.40;;
10651;SDS011;5374;42.742;23.266;2023-07-02T12:07:21;5.23;;;4.73;;
10651;SDS011;5374;42.742;23.266;2023-07-02T12:10:08;5.20;;;4.70;;
10651;SDS011;5374;42.742;23.266;2023-07-02T12:12:56;5.80;;;5.17;;
10651;SDS011;5374;42.742;23.266;2023-07-02T12:15:44;8.00;;;5.00;;
10651;SDS011;5374;42.742;23.266;2023-07-02T12:18:32;8.43;;;5.40;;
10651;SDS011;5374;42.742;23.266;2023-07-02T12:21:19;5.93;;;5.30;;
10651;SDS011;5374;42.742;23.266;2023-07-02T12:24:06;5.73;;;5.07;;
10651;SDS011;5374;42.742;23.266;2023-07-02T12:26:55;6.57;;;4.77;;
10651;SDS011;5374;42.742;23.266;2023-07-02T12:29:42;7.17;;;5.60;;
10651;SDS011;5374;42.742;23.266;2023-07-02T12:32:30;8.03;;;5.20;;
10651;SDS011;5374;42.742;23.266;2023-07-02T12:35:17;7.83;;;5.80;;
10651;SDS011;5374;42.742;23.266;2023-07-02T12:38:05;6.63;;;6.03;;
10651;SDS011;5374;42.742;23.266;2023-07-02T12:40:53;6.87;;;6.17;;
10651;SDS011;5374;42.742;23.266;2023-07-02T12:43:40;7.63;;;6.90;;
10651;SDS011;5374;42.742;23.266;2023-07-02T12:46:27;6.33;;;5.73;;
10651;SDS011;5374;42.742;23.266;2023-07-02T12:49:16;7.60;;;6.50;;
10651;SDS011;5374;42.742;23.266;2023-07-02T12:52:03;8.00;;;6.00;;
10651;SDS011;5374;42.742;23.266;2023-07-02T12:54:50;7.57;;;6.80;;
10651;SDS011;5374;42.742;23.266;2023-07-02T12:57:37;8.37;;;6.63;;
10651;SDS011;5374;42.742;23.266;2023-07-02T13:00:25;8.37;;;7.40;;
10651;SDS011;5374;42.742;23.266;2023-07-02T13:03:12;7.20;;;6.10;;
10651;SDS011;5374;42.742;23.266;2023-07-02T13:06:01;7.87;;;6.30;;
10651;SDS011;5374;42.742;23.266;2023-07-02T13:08:48;6.43;;;5.73;;
10651;SDS011;5374;42.742;23.266;2023-07-02T13:11:35;7.33;;;6.00;;
10651;SDS011;5374;42.742;23.266;2023-07-02T13:14:23;8.37;;;6.13;;
10651;SDS011;5374;42.742;23.266;2023-07-02T13:17:10;8.93;;;6.53;;
10651;SDS011;5374;42.742;23.266;2023-07-02T13:19:58;6.63;;;6.03;;
10651;SDS011;5374;42.742;23.266;2023-07-02T13:22:46;6.77;;;5.60;;
10651;SDS011;5374;42.742;23.266;2023-07-02T13:25:33;6.30;;;5.70;;
10651;SDS011;5374;42.742;23.266;2023-07-02T13:28:20;8.37;;;6.27;;
10651;SDS011;5374;42.742;23.266;2023-07-02T13:31:08;7.00;;;5.50;;
10651;SDS011;5374;42.742;23.266;2023-07-02T13:33:57;6.80;;;6.10;;
10651;SDS011;5374;42.742;23.266;2023-07-02T13:36:44;6.37;;;5.47;;
10651;SDS011;5374;42.742;23.266;2023-07-02T13:39:32;6.87;;;5.00;;
10651;SDS011;5374;42.742;23.266;2023-07-02T13:42:19;6.67;;;5.87;;
10651;SDS011;5374;42.742;23.266;2023-07-02T13:45:07;9.27;;;5.40;;
10651;SDS011;5374;42.742;23.266;2023-07-02T13:47:55;8.10;;;5.80;;
10651;SDS011;5374;42.742;23.266;2023-07-02T13:50:42;6.70;;;5.50;;
10651;SDS011;5374;42.742;23.266;2023-07-02T13:53:29;7.33;;;5.33;;
10651;SDS011;5374;42.742;23.266;2023-07-02T13:56:19;9.00;;;5.77;;
10651;SDS011;5374;42.742;23.266;2023-07-02T13:59:07;6.60;;;5.90;;
10651;SDS011;5374;42.742;23.266;2023-07-02T14:01:55;8.47;;;6.00;;
10651;SDS011;5374;42.742;23.266;2023-07-02T14:04:43;6.87;;;5.80;;
10651;SDS011;5374;42.742;23.266;2023-07-02T14:07:31;8.40;;;5.87;;
10651;SDS011;5374;42.742;23.266;2023-07-02T14:10:19;9.57;;;6.13;;
10651;SDS011;5374;42.742;23.266;2023-07-02T14:13:06;9.37;;;6.30;;
10651;SDS011;5374;42.742;23.266;2023-07-02T14:15:55;6.37;;;5.73;;
10651;SDS011;5374;42.742;23.266;2023-07-02T14:18:42;8.90;;;6.67;;
10651;SDS011;5374;42.742;23.266;2023-07-02T14:21:30;8.83;;;6.30;;
10651;SDS011;5374;42.742;23.266;2023-07-02T14:24:17;8.87;;;6.67;;
10651;SDS011;5374;42.742;23.266;2023-07-02T14:27:04;9.43;;;6.80;;
10651;SDS011;5374;42.742;23.266;2023-07-02T14:29:52;7.00;;;6.30;;
10651;SDS011;5374;42.742;23.266;2023-07-02T14:32:40;7.67;;;6.30;;
10651;SDS011;5374;42.742;23.266;2023-07-02T14:35:29;7.03;;;6.33;;
10651;SDS011;5374;42.742;23.266;2023-07-02T14:38:16;7.20;;;6.50;;
10651;SDS011;5374;42.742;23.266;2023-07-02T14:41:03;7.87;;;6.37;;
10651;SDS011;5374;42.742;23.266;2023-07-02T14:43:50;8.87;;;6.23;;
10651;SDS011;5374;42.742;23.266;2023-07-02T14:46:38;7.17;;;6.03;;
10651;SDS011;5374;42.742;23.266;2023-07-02T14:49:26;8.20;;;6.47;;
10651;SDS011;5374;42.742;23.266;2023-07-02T14:52:14;6.97;;;6.23;;
10651;SDS011;5374;42.742;23.266;2023-07-02T14:55:02;8.13;;;7.33;;
10651;SDS011;5374;42.742;23.266;2023-07-02T14:57:50;8.53;;;7.13;;
10651;SDS011;5374;42.742;23.266;2023-07-02T15:00:42;8.77;;;6.47;;
10651;SDS011;5374;42.742;23.266;2023-07-02T15:03:30;9.17;;;7.70;;
10651;SDS011;5374;42.742;23.266;2023-07-02T15:06:18;9.73;;;6.50;;
10651;SDS011;5374;42.742;23.266;2023-07-02T15:09:06;8.57;;;6.63;;
10651;SDS011;5374;42.742;23.266;2023-07-02T15:11:54;9.83;;;7.10;;
10651;SDS011;5374;42.742;23.266;2023-07-02T15:14:41;7.93;;;6.63;;
10651;SDS011;5374;42.742;23.266;2023-07-02T15:17:29;7.53;;;6.60;;
10651;SDS011;5374;42.742;23.266;2023-07-02T15:20:17;7.10;;;6.40;;
10651;SDS011;5374;42.742;23.266;2023-07-02T15:23:06;8.43;;;6.57;;
10651;SDS011;5374;42.742;23.266;2023-07-02T15:25:53;9.47;;;7.17;;
10651;SDS011;5374;42.742;23.266;2023-07-02T15:28:41;9.93;;;7.13;;
10651;SDS011;5374;42.742;23.266;2023-07-02T15:31:28;11.07;;;7.17;;
10651;SDS011;5374;42.742;23.266;2023-07-02T15:34:16;7.63;;;6.70;;
10651;SDS011;5374;42.742;23.266;2023-07-02T15:37:04;10.70;;;6.87;;
10651;SDS011;5374;42.742;23.266;2023-07-02T15:39:53;7.17;;;6.10;;
10651;SDS011;5374;42.742;23.266;2023-07-02T15:42:40;7.77;;;6.80;;
10651;SDS011;5374;42.742;23.266;2023-07-02T15:45:27;8.07;;;7.20;;
10651;SDS011;5374;42.742;23.266;2023-07-02T15:48:15;9.77;;;7.63;;
10651;SDS011;5374;42.742;23.266;2023-07-02T15:51:02;9.13;;;7.43;;
10651;SDS011;5374;42.742;23.266;2023-07-02T15:53:50;8.67;;;6.97;;
10651;SDS011;5374;42.742;23.266;2023-07-02T15:56:39;7.83;;;6.87;;
10651;SDS011;5374;42.742;23.266;2023-07-02T15:59:26;10.20;;;7.17;;
10651;SDS011;5374;42.742;23.266;2023-07-02T16:02:13;7.47;;;6.37;;
10651;SDS011;5374;42.742;23.266;2023-07-02T16:05:00;10.17;;;6.87;;
10651;SDS011;5374;42.742;23.266;2023-07-02T16:07:47;8.63;;;7.27;;
10651;SDS011;5374;42.742;23.266;2023-07-02T16:10:35;8.60;;;7.40;;
10651;SDS011;5374;42.742;23.266;2023-07-02T16:13:28;8.40;;;7.50;;
10651;SDS011;5374;42.742;23.266;2023-07-02T16:16:15;9.37;;;7.10;;
10651;SDS011;5374;42.742;23.266;2023-07-02T16:19:02;9.27;;;7.20;;
10651;SDS011;5374;42.742;23.266;2023-07-02T16:21:49;14.60;;;9.10;;
10651;SDS011;5374;42.742;23.266;2023-07-02T16:24:37;9.03;;;7.63;;
10651;SDS011;5374;42.742;23.266;2023-07-02T16:27:24;10.00;;;8.07;;
10651;SDS011;5374;42.742;23.266;2023-07-02T16:30:13;12.77;;;9.00;;
10651;SDS011;5374;42.742;23.266;2023-07-02T16:33:00;10.87;;;9.77;;
10651;SDS011;5374;42.742;23.266;2023-07-02T16:35:47;9.20;;;8.30;;
10651;SDS011;5374;42.742;23.266;2023-07-02T16:38:35;9.40;;;8.47;;
10651;SDS011;5374;42.742;23.266;2023-07-02T16:41:22;9.23;;;8.20;;
10651;SDS011;5374;42.742;23.266;2023-07-02T16:44:10;11.03;;;8.57;;